Station: Century Mine  

  Atmospheric Gas Attenuation - ITU Rec 676-11   ----------------- dB/100km -----------------
Date Time Temp RH % AH g/m3 Dew Point Wind Direction Speed kph Gust kph Barometer mB Rainfall Since 9am 24GHz 47GHz 76GHz 122GHz 134GHz 241GHz
08/05 12:30 28 34 9.25 10.7 20 32 1015.4 0 20.3 23.1 35.7 93.6 89.6 309.5
08/05 12:20 28.3 35 9.68 11.4 20 28 1015.7 0 21.1 23.6 37.0 97.2 94.1 325.3
08/05 12:10 27.5 37 9.79 11.5 22 28 1015.9 0 21.4 24.0 37.8 99.2 96.4 333.0
08/05 12:00 27.2 35 9.11 10.4 22 35 1016 0 20.0 23.1 35.6 93.3 89.0 307.1
08/05 11:50 27.3 34 8.9 10.1 26 32 1016.2 0 19.6 22.8 34.8 91.3 86.6 298.6
08/05 11:40 26.4 37 9.21 10.5 22 30 1016.4 0 20.3 23.5 36.3 95.2 91.1 314.3
08/05 11:30 25.9 35 8.47 9.3 24 33 1016.6 0 18.7 22.6 34.0 89.0 83.2 286.8
08/05 11:20 26.6 35 8.81 9.9 24 30 1016.9 0 19.4 22.9 34.8 91.3 86.3 297.8
08/05 11:10 25.7 34 8.14 8.7 19 24 1017.1 0 18.1 22.2 32.9 86.3 79.8 274.7
08/05 11:00 25.3 36 8.43 9.2 24 37 1017 0 18.7 22.7 34.1 89.3 83.4 287.4
08/05 10:50 25.1 36 8.33 9 22 26 1017.3 0 18.5 22.6 33.8 88.6 82.5 284.3
08/05 10:40 24.8 35 7.97 8.3 15 22 1017.3 0 17.8 22.2 32.7 85.7 78.8 271.1
08/05 10:30 24.3 35 7.74 7.9 20 32 1017.3 0 17.3 22.0 32.2 84.1 76.7 263.7
08/05 10:20 24 34 7.4 7.2 24 32 1017.4 0 16.6 21.6 31.1 81.4 73.2 251.4
08/05 10:10 23.7 33 7.06 6.5 28 37 1017.5 0 15.9 21.2 30.1 78.6 69.8 239.2
08/05 10:00 23.5 34 7.19 6.7 26 39 1017.5 0 16.2 21.4 30.6 80.0 71.4 244.8
08/05 09:50 24.1 32 7 6.4 30 37 1017.4 0 15.8 21.0 29.8 77.7 68.8 235.7
08/05 09:40 24.2 32 7.04 6.5 20 22 1017.5 0 15.8 21.1 29.9 78.0 69.1 237.0
08/05 09:30 23.4 32 6.73 5.8 22 37 1017.3 0 15.2 20.8 29.1 76.0 66.4 227.4
08/05 09:20 23 33 6.78 5.9 28 39 1017.4 0 15.4 21.0 29.4 76.8 67.3 230.4
08/05 09:10 23 33 6.78 5.9 20 30 1017.3 0 15.4 21.0 29.4 76.8 67.3 230.4
08/05 09:00 22.3 36 7.11 6.5 17 24 1017.2 0 16.1 21.6 30.8 80.4 71.5 245.2
08/05 08:50 21.1 38 7 6.2 17 24 1017.2 0 15.9 21.7 30.8 80.6 71.3 244.4
08/05 08:40 21 38 6.96 6.2 17 22 1017.1 0 15.8 21.7 30.7 80.3 71.0 243.1
08/05 08:30 20.6 39 6.98 6.2 19 28 1016.9 0 15.9 21.8 31.0 80.9 71.5 245.1
08/05 08:20 20.2 40 6.99 6.2 13 20 1016.9 0 15.9 21.9 31.1 81.4 72.0 246.7
08/05 08:10 19.9 40 6.87 5.9 20 26 1016.9 0 15.7 21.8 30.8 80.5 70.9 242.8
08/05 08:00 19.3 42 6.97 6.1 13 22 1016.7 0 15.9 22.1 31.4 82.1 72.6 248.6
08/05 07:50 18.8 43 6.92 6 13 15 1016.8 0 15.8 22.1 31.4 82.1 72.4 248.1
08/05 07:40 18.8 42 6.76 5.6 15 17 1016.7 0 15.5 21.9 30.9 80.6 70.6 241.5
08/05 07:30 18.8 43 6.92 6 13 20 1016.6 0 15.8 22.1 31.4 82.1 72.4 248.0
08/05 07:20 18.8 42 6.76 5.6 13 17 1016.7 0 15.5 21.9 30.9 80.6 70.6 241.5
08/05 07:10 18.6 43 6.84 5.8 13 15 1016.6 0 15.6 22.1 31.2 81.5 71.7 245.4
08/05 07:00 18.5 43 6.8 5.7 15 20 1016.5 0 15.6 22.0 31.1 81.2 71.3 244.0
08/05 06:50 18.5 44 6.96 6 13 15 1016.4 0 15.9 22.3 31.7 82.7 73.1 250.5
08/05 06:40 18.5 44 6.96 6 13 19 1016.3 0 15.9 22.3 31.7 82.7 73.1 250.5
08/05 06:30 18.6 44 7 6.1 15 28 1016 0 16.0 22.3 31.8 83.0 73.5 251.8
08/05 06:20 18.8 43 6.92 6 13 15 1015.9 0 15.8 22.1 31.4 82.0 72.4 247.9
08/05 06:10 18.7 44 7.04 6.2 13 19 1015.8 0 16.1 22.3 31.8 83.2 73.9 253.1
08/05 06:00 18.7 45 7.2 6.5 13 19 1015.7 0 16.4 22.5 32.4 84.8 75.7 259.6
08/05 05:50 18.8 45 7.25 6.6 11 15 1015.8 0 16.5 22.6 32.6 85.1 76.2 261.4
08/05 05:40 19 44 7.17 6.5 17 19 1015.7 0 16.3 22.4 32.2 84.2 75.1 257.4
08/05 05:30 18.9 45 7.29 6.7 13 19 1015.6 0 16.6 22.6 32.6 85.4 76.6 262.7
08/05 05:20 19.2 44 7.25 6.7 13 17 1015.7 0 16.5 22.5 32.4 84.7 75.8 260.1
08/05 05:10 19.3 44 7.3 6.8 15 19 1015.8 0 16.6 22.5 32.5 85.1 76.3 261.8
08/05 05:00 19.4 44 7.34 6.8 13 19 1015.7 0 16.7 22.6 32.6 85.3 76.7 263.1
08/05 04:50 19.4 45 7.51 7.2 13 17 1015.9 0 17.0 22.8 33.2 87.0 78.7 270.2
08/05 04:40 19.5 45 7.55 7.3 13 17 1015.9 0 17.1 22.8 33.3 87.3 79.1 271.5
08/05 04:30 19.5 45 7.55 7.3 11 17 1015.8 0 17.1 22.8 33.3 87.3 79.1 271.5
08/05 04:20 19.7 45 7.64 7.4 13 15 1015.8 0 17.3 22.9 33.6 87.9 79.9 274.5
08/05 04:10 19.8 45 7.69 7.5 11 13 1015.7 0 17.4 23.0 33.7 88.3 80.4 276.2
08/05 04:00 19.9 45 7.73 7.6 13 19 1015.6 0 17.5 23.0 33.8 88.5 80.8 277.5
08/05 03:50 20.1 45 7.82 7.8 15 19 1015.7 0 17.6 23.1 34.1 89.2 81.7 280.6
08/05 03:40 20.2 44 7.69 7.6 13 19 1015.7 0 17.4 22.9 33.6 87.8 80.0 274.9
08/05 03:30 20.3 44 7.74 7.7 13 19 1015.7 0 17.5 22.9 33.7 88.2 80.5 276.6
08/05 03:20 20.6 44 7.87 7.9 13 19 1015.7 0 17.7 23.0 34.0 89.1 81.7 280.9
08/05 03:10 20.7 43 7.74 7.7 17 19 1015.8 0 17.5 22.8 33.5 87.8 80.1 275.3
08/05 03:00 21.1 42 7.74 7.7 13 24 1015.7 0 17.4 22.7 33.4 87.3 79.7 273.9
08/05 02:50 21 43 7.88 8 15 19 1015.8 0 17.7 22.9 33.9 88.8 81.4 280.0
08/05 02:40 21 43 7.88 8 13 19 1015.8 0 17.7 22.9 33.9 88.8 81.4 280.0
08/05 02:30 21.1 43 7.92 8 13 22 1015.7 0 17.8 23.0 34.0 89.0 81.8 281.2
08/05 02:20 21.3 43 8.01 8.2 13 17 1015.8 0 18.0 23.1 34.2 89.7 82.7 284.3
08/05 02:10 21.6 42 7.97 8.1 13 19 1015.8 0 17.9 22.9 34.0 89.0 81.9 281.6
08/05 02:00 21.7 42 8.01 8.2 15 22 1015.7 0 18.0 23.0 34.1 89.2 82.2 282.8
08/05 01:50 21.7 43 8.2 8.6 15 19 1015.8 0 18.4 23.2 34.7 91.0 84.5 290.6
08/05 01:40 21.8 44 8.44 9 13 17 1015.9 0 18.9 23.6 35.6 93.2 87.2 300.2
08/05 01:30 21.9 43 8.3 8.8 15 20 1015.8 0 18.6 23.3 35.0 91.8 85.4 294.0
08/05 01:20 21.9 45 8.68 9.4 13 17 1015.9 0 19.4 23.9 36.4 95.4 89.9 309.8
08/05 01:10 22.1 44 8.59 9.3 13 19 1016.1 0 19.2 23.7 36.0 94.3 88.6 305.3
08/05 01:00 22.3 44 8.69 9.5 15 22 1015.9 0 19.4 23.8 36.2 95.0 89.6 308.7
08/05 00:50 22.5 44 8.79 9.6 15 20 1016 0 19.6 23.9 36.5 95.8 90.6 312.1
08/05 00:40 22.4 46 9.13 10.2 17 24 1015.9 0 20.3 24.4 37.8 99.2 94.7 326.6
08/05 00:30 22.6 46 9.24 10.4 17 24 1015.9 0 20.5 24.5 38.1 100.0 95.8 330.4
08/05 00:20 22.8 46 9.35 10.6 13 17 1015.9 0 20.7 24.6 38.4 100.8 96.9 334.3
08/05 00:10 22.9 46 9.4 10.7 17 20 1016 0 20.8 24.7 38.5 101.2 97.4 336.0
08/05 00:00 22.9 48 9.81 11.3 15 20 1015.8 0 21.7 25.3 40.0 105.2 102.3 353.3
07/05 23:50 23 48 9.87 11.4 15 17 1015.9 0 21.8 25.3 40.2 105.7 102.9 355.4
07/05 23:40 23.4 48 10.09 11.8 15 19 1016 0 22.3 25.6 40.8 107.3 105.1 363.1
07/05 23:30 23.8 46 9.89 11.5 17 24 1015.9 0 21.8 25.2 39.9 104.8 102.1 352.8
07/05 23:20 23.7 47 10.05 12 19 24 1016 0 22.2 25.4 40.5 106.5 104.2 360.0
07/05 23:10 23.8 46 9.89 11.5 9 17 1016 0 21.8 25.2 39.9 104.8 102.1 352.8
07/05 23:00 24.3 45 9.96 11.6 15 20 1015.9 0 21.9 25.1 39.9 104.9 102.3 353.5
07/05 22:50 24.6 43 9.68 11.5 15 20 1016 0 21.3 24.6 38.7 101.8 98.6 340.6
07/05 22:40 24.7 44 9.96 11.6 19 20 1016 0 21.9 25.0 39.7 104.3 101.8 351.8
07/05 22:30 24.9 44 10.07 11.8 17 30 1015.8 0 22.1 25.1 40.0 105.1 102.9 355.5
07/05 22:20 25.1 42 9.72 11.6 15 22 1015.9 0 21.4 24.5 38.6 101.5 98.5 340.1
07/05 22:10 25.2 44 10.24 12.1 19 28 1016 0 22.5 25.3 40.5 106.4 104.5 361.3
07/05 22:00 25.3 44 10.3 12.2 19 32 1015.9 0 22.6 25.3 40.7 106.9 105.1 363.4
07/05 21:50 25.3 45 10.53 12.5 19 28 1016 0 23.1 25.7 41.5 109.1 107.9 373.1
07/05 21:40 25.7 44 10.53 12.5 20 28 1016 0 23.0 25.6 41.3 108.6 107.3 371.2
07/05 21:30 25.8 45 10.83 13 19 33 1015.9 0 23.7 26.0 42.3 111.4 110.8 383.4
07/05 21:20 25.6 46 10.95 13.1 15 17 1015.9 0 23.9 26.2 42.9 112.8 112.6 389.5
07/05 21:10 25.6 47 11.19 13.5 15 20 1015.9 0 24.4 26.6 43.8 115.2 115.5 399.8
07/05 21:00 25.4 47 11.06 13.3 13 20 1015.7 0 24.2 26.4 43.4 114.2 114.2 395.1
07/05 20:50 25 48 11.05 13.2 11 13 1015.7 0 24.2 26.5 43.6 114.7 114.6 396.7
07/05 20:40 24.5 51 11.41 13.7 9 11 1015.5 0 25.0 27.2 45.2 119.0 119.8 414.8
07/05 20:30 24.4 52 11.57 13.9 9 13 1015.3 0 25.3 27.5 45.9 120.8 122.0 422.3
07/05 20:20 24.1 54 11.81 14.2 7 9 1015.3 0 25.8 28.0 47.0 123.7 125.5 434.6
07/05 20:10 24.3 52 11.51 13.8 9 11 1015.2 0 25.2 27.4 45.7 120.3 121.4 420.2
07/05 20:00 24.3 54 11.95 14.4 7 11 1015 0 26.1 28.1 47.4 124.8 127.0 439.7

Last Refresh: 08-May-2026 12:08:17

Bureau of Meteorology